Fountain, Alabama
Current Conditions -  °F | °C
As of 9:53 AM on Friday 21 Nov 2014 (Local Time) from KGZH Reporting Station
Clear Clear  
Wind Chill: 61°   Ceiling: Unl
Heat Index: 61°   Visibility: 10mi
Dew Point: 47°   Wind: 0mph
Humidity: 60%   Direction: NA
Pressure: 30.38"   Gusts: NA
Location:  31.5178°N, 87.3209°W
Report Text: KGZH 211553Z AUTO 00000KT 10SM CLR 16/08 A3038 RMK AO2 SLP287 T01610083
Loading
Personal Weather Stations






























Interactive Weather Map New forecast layout! Learn more

10-Day Weather Forecast

Advertisements
Track Severe Weather on mobile